메인 페이지
METAR-TAF:

METAR-TAF

공항 :

롱뷰, 텍사스, 미국

위도: 32-23-26N, 경도: 094-42-50W, 고도: 111m

현재 날씨관측

예보는 28분 전, 00:53시(UTC)에 발표되었습니다.
북북서7kt
온도 19°C
습도 56%
기압 1021 hPa
시정: 16.1km
맑음

METAR: KGGG 260053Z 33007KT 10SM CLR 19/10 A3015 RMK AO2 SLP205 T01890100

시각: 20:21 (01:21 UTC)

예보

예보는 1 시간 41분 전, 23:40시(UTC)에 발표되었습니다.
예보 대상 시간: 26일 00시부터 26일 24시까지 (UTC)
북북서12kt
시정: 10km
맑음
일시적
26일 10시부터 26일 14시까지 (UTC)
고도 3000ft 상공 구름 많음
26일 1400시부터 (UTC)
북동6kt
시정: 10km
고도 2500ft 상공 구름 보통
일시적
26일 14시부터 26일 16시까지 (UTC)
고도 2500ft 상공 구름 많음
26일 1600시부터 (UTC)
북북동8kt
시정: 10km
맑음

TAF: KGGG 252340Z 2600/2624 33012KT P6SM SKC TEMPO 2610/2614 BKN030 FM261400 04006KT P6SM SCT025 TEMPO 2614/2616 BKN025 FM261600 02008KT P6SM SKC

4,000개 이상의 공항 관측 자료 및 예보 (METAR 및 TAF 보고).

지도상에서 검색 가능한 기상관측소가 노란 점과 빨간 점으로 표시되어 있습니다.

기상관측소 명을 보려면 표시 위로 마우스를 이동하세요.

날씨 관측과 예보를 보려면 클릭하세요.

지도 변경 : 확대하려면 엑스 표시가 있는 녹색 버튼, 축소하려면 빼기 표시가 있는 녹색 버튼, 다음 페이지의 지도를 보려면 녹색 화살표를 클릭하세요.


METAR-TAF: